createdAt,value
2023-01-17T00:00:16.362Z,98823.28
2023-01-17T00:02:44.033Z,98799.53
2023-01-17T00:05:29.958Z,98786.75
2023-01-17T00:08:15.226Z,98816.47
2023-01-17T00:10:42.744Z,98815.66
2023-01-17T00:13:12.573Z,98765.56
2023-01-17T00:15:42.142Z,98788.47
2023-01-17T00:18:08.867Z,98791.03
2023-01-17T00:20:54.184Z,98819.03
2023-01-17T00:23:47.595Z,98809.72
2023-01-17T00:26:20.837Z,98795.28
2023-01-17T00:28:47.374Z,98773.22
2023-01-17T00:31:20.636Z,98725.69
2023-01-17T00:33:49.385Z,98779.16
2023-01-17T00:36:18.449Z,98732.50
2023-01-17T00:38:44.986Z,98802.94
2023-01-17T00:41:14.452Z,98768.59
2023-01-17T00:44:02.840Z,98739.66
2023-01-17T00:46:48.300Z,98766.72
2023-01-17T00:49:41.859Z,98759.13
2023-01-17T00:52:32.446Z,98759.16
2023-01-17T00:55:17.708Z,98765.13
2023-01-17T00:58:03.205Z,98737.19
2023-01-17T01:00:48.520Z,98760.94
2023-01-17T01:03:36.840Z,98725.34
2023-01-17T01:06:29.723Z,98751.69
2023-01-17T01:09:18.046Z,98699.19
2023-01-17T01:12:08.496Z,98740.84
2023-01-17T01:15:01.788Z,98722.19
2023-01-17T01:17:47.155Z,98735.84
2023-01-17T01:20:32.341Z,98769.78
2023-01-17T01:23:20.383Z,98746.91
2023-01-17T01:26:13.362Z,98784.28
2023-01-17T01:29:06.366Z,98759.66
2023-01-17T01:31:56.973Z,98754.59
2023-01-17T01:34:30.277Z,98711.38
2023-01-17T01:36:59.916Z,98721.53
2023-01-17T01:39:26.788Z,98725.78
2023-01-17T01:41:58.877Z,98741.03
2023-01-17T01:44:48.096Z,98752.94
2023-01-17T01:47:32.115Z,98730.03
2023-01-17T01:50:02.036Z,98730.03
2023-01-17T01:52:39.577Z,98723.25
2023-01-17T01:55:29.214Z,98750.41
2023-01-17T01:58:04.139Z,98743.63
2023-01-17T02:00:35.951Z,98738.53
2023-01-17T02:03:07.630Z,98747.91
2023-01-17T02:05:36.849Z,98745.38
2023-01-17T02:08:08.095Z,98794.56
2023-01-17T02:10:41.999Z,98743.66
2023-01-17T02:13:10.081Z,98708.84
2023-01-17T02:15:56.050Z,98781.88
2023-01-17T02:18:40.607Z,98792.88
2023-01-17T02:21:45.405Z,98791.22
2023-01-17T02:24:20.629Z,98790.34
2023-01-17T02:27:23.089Z,98784.44
2023-01-17T02:30:11.525Z,98777.63
2023-01-17T02:32:53.521Z,98785.25
2023-01-17T02:35:42.862Z,98793.75
2023-01-17T02:38:33.383Z,98792.91
2023-01-17T02:41:19.777Z,98723.31
2023-01-17T02:43:51.463Z,98708.03
2023-01-17T02:46:18.657Z,98730.94
2023-01-17T02:48:48.837Z,98740.28
2023-01-17T02:51:41.832Z,98795.47
2023-01-17T02:54:29.786Z,98786.13
2023-01-17T02:57:11.054Z,98779.34
2023-01-17T02:59:53.087Z,98747.06
2023-01-17T03:02:53.077Z,98714.81
2023-01-17T03:05:25.847Z,98774.25
2023-01-17T03:07:56.608Z,98706.31
2023-01-17T03:10:24.452Z,98748.78
2023-01-17T03:12:57.888Z,98712.28
2023-01-17T03:15:24.702Z,98701.22
2023-01-17T03:17:59.285Z,98729.22
2023-01-17T03:20:25.995Z,98696.13
2023-01-17T03:22:52.868Z,98701.22
2023-01-17T03:25:19.582Z,98723.31
2023-01-17T03:27:48.910Z,98696.13
2023-01-17T03:30:16.133Z,98723.31
2023-01-17T03:32:42.819Z,98722.47
2023-01-17T03:35:09.664Z,98717.38
2023-01-17T03:37:36.436Z,98702.94
2023-01-17T03:40:03.466Z,98733.50
2023-01-17T03:42:30.064Z,98731.81
2023-01-17T03:44:56.778Z,98723.31
2023-01-17T03:47:23.288Z,98730.09
2023-01-17T03:49:49.752Z,98716.50
2023-01-17T03:52:18.695Z,98736.88
2023-01-17T03:54:45.413Z,98700.38
2023-01-17T03:57:12.103Z,98717.34
2023-01-17T03:59:38.682Z,98694.44
2023-01-17T04:02:05.521Z,98698.69
2023-01-17T04:04:32.317Z,98684.28
2023-01-17T04:06:58.966Z,98729.22
2023-01-17T04:09:25.563Z,98723.28
2023-01-17T04:11:53.429Z,98696.13
2023-01-17T04:14:20.120Z,98685.13
2023-01-17T04:16:46.799Z,98737.72
2023-01-17T04:19:14.053Z,98726.69
2023-01-17T04:21:40.747Z,98734.31
2023-01-17T04:24:07.598Z,98719.91
2023-01-17T04:26:34.194Z,98720.75
2023-01-17T04:29:00.803Z,98715.66
2023-01-17T04:31:27.850Z,98726.69
2023-01-17T04:33:54.369Z,98700.38
2023-01-17T04:36:21.044Z,98718.19
2023-01-17T04:38:47.787Z,98733.47
2023-01-17T04:41:14.544Z,98697.00
2023-01-17T04:43:41.066Z,98714.81
2023-01-17T04:46:10.299Z,98747.09
2023-01-17T04:48:37.255Z,98708.03
2023-01-17T04:51:05.339Z,98728.38
2023-01-17T04:53:32.326Z,98700.38
2023-01-17T04:55:58.994Z,98708.88
2023-01-17T04:58:25.602Z,98702.94
2023-01-17T05:00:54.980Z,98704.66
2023-01-17T05:03:23.025Z,98732.66
2023-01-17T05:05:50.754Z,98721.59
2023-01-17T05:08:17.474Z,98680.88
2023-01-17T05:10:46.325Z,98708.03
2023-01-17T05:13:13.361Z,98728.38
2023-01-17T05:15:40.374Z,98730.94
2023-01-17T05:18:08.730Z,98699.53
2023-01-17T05:20:36.710Z,98741.97
2023-01-17T05:23:03.469Z,98703.75
2023-01-17T05:25:32.155Z,98696.16
2023-01-17T05:28:02.257Z,98690.19
2023-01-17T05:30:32.777Z,98677.44
2023-01-17T05:32:59.324Z,98713.09
2023-01-17T05:35:29.537Z,98700.38
2023-01-17T05:37:56.477Z,98692.72
2023-01-17T05:40:26.372Z,98685.94
2023-01-17T05:42:55.069Z,98701.22
2023-01-17T05:45:23.093Z,98661.31
2023-01-17T05:47:51.477Z,98699.53
2023-01-17T05:50:21.559Z,98689.31
2023-01-17T05:52:56.761Z,98674.06
2023-01-17T05:55:24.707Z,98726.66
2023-01-17T05:57:51.600Z,98726.66
2023-01-17T06:00:23.234Z,98684.19
2023-01-17T06:02:54.022Z,98656.16
2023-01-17T06:05:21.819Z,98724.06
2023-01-17T06:08:18.104Z,98644.28
2023-01-17T06:11:03.985Z,98685.03
2023-01-17T06:13:33.023Z,98680.75
2023-01-17T06:16:04.528Z,98673.94
2023-01-17T06:22:07.171Z,98711.34
2023-01-17T06:26:18.869Z,98684.13
2023-01-17T06:28:55.296Z,98685.84
2023-01-17T06:31:32.777Z,98643.38
2023-01-17T06:38:17.996Z,98745.28
2023-01-17T06:44:28.436Z,98676.47
2023-01-17T06:47:07.217Z,98634.88
2023-01-17T06:49:50.556Z,98645.03
2023-01-17T06:53:11.018Z,98631.47
2023-01-17T07:00:00.087Z,98746.94
2023-01-17T07:03:36.517Z,98721.47
2023-01-17T07:06:43.381Z,98644.19
2023-01-17T07:09:10.603Z,98710.41
2023-01-17T07:12:10.081Z,98753.75
2023-01-17T07:15:16.073Z,98650.94
2023-01-17T07:21:47.910Z,98713.78
2023-01-17T07:28:51.958Z,98699.31
2023-01-17T07:32:23.056Z,98684.03
2023-01-17T07:36:42.203Z,98698.47
2023-01-17T07:43:56.584Z,98666.22
2023-01-17T07:54:24.887Z,98663.66
2023-01-17T08:00:36.631Z,98681.47
2023-01-17T08:07:11.367Z,98717.16
2023-01-17T08:10:05.214Z,98714.66
2023-01-17T08:13:44.489Z,98744.41
2023-01-17T08:17:17.676Z,98697.69
2023-01-17T08:27:39.534Z,98720.59
2023-01-17T08:33:40.738Z,98692.59
2023-01-17T08:37:57.319Z,98717.22
2023-01-17T08:56:00.130Z,98738.53
2023-01-17T09:05:58.628Z,98768.28
2023-01-17T09:09:02.630Z,98747.91
2023-01-17T09:11:40.953Z,98719.91
2023-01-17T09:17:29.321Z,98774.25
2023-01-17T09:20:06.561Z,98764.91
2023-01-17T09:22:37.721Z,98762.38
2023-01-17T09:25:05.317Z,98811.63
2023-01-17T09:27:34.473Z,98791.25
2023-01-17T09:30:06.641Z,98773.38
2023-01-17T09:33:43.062Z,98837.06
2023-01-17T09:36:22.187Z,98763.19
2023-01-17T09:38:51.094Z,98791.19
2023-01-17T09:45:04.901Z,98756.38
2023-01-17T09:48:17.886Z,98851.44
2023-01-17T09:54:43.457Z,98840.41
2023-01-17T09:57:38.489Z,98861.59
2023-01-17T10:00:46.823Z,98867.53
2023-01-17T10:03:47.999Z,98785.16
2023-01-17T10:06:25.039Z,98877.69
2023-01-17T10:09:04.970Z,98850.50
2023-01-17T10:12:14.428Z,98881.03
2023-01-17T10:15:38.531Z,98892.06
2023-01-17T10:18:29.238Z,98892.03
2023-01-17T10:33:43.381Z,98862.13
2023-01-17T10:36:31.175Z,98876.53
2023-01-17T10:39:12.952Z,98879.09
2023-01-17T10:42:08.224Z,98860.38
2023-01-17T10:49:21.730Z,98913.81
2023-01-17T10:52:20.963Z,98863.72
2023-01-17T10:55:05.396Z,98870.50
2023-01-17T11:00:44.099Z,98916.19
2023-01-17T11:03:15.982Z,98899.97
2023-01-17T11:05:43.607Z,98899.88
2023-01-17T11:08:13.604Z,98896.50
2023-01-17T11:10:54.458Z,98891.34
2023-01-17T11:30:19.868Z,98920.63
2023-01-17T11:32:59.841Z,98898.50
2023-01-17T11:35:35.439Z,98869.53
2023-01-17T11:38:27.373Z,98857.53
2023-01-17T11:41:14.246Z,98886.19
2023-01-17T11:43:56.483Z,98870.00
2023-01-17T11:46:28.433Z,98840.22
2023-01-17T11:49:01.678Z,98865.59
2023-01-17T11:51:47.456Z,98877.28
2023-01-17T11:54:24.135Z,98863.72
2023-01-17T11:57:01.710Z,98819.56
2023-01-17T11:59:35.322Z,98876.22
2023-01-17T12:06:27.240Z,98878.50
2023-01-17T12:09:01.021Z,98878.41
2023-01-17T12:12:06.487Z,98837.66
2023-01-17T12:15:21.950Z,98881.66
2023-01-17T12:18:09.167Z,98850.16
2023-01-17T12:20:57.421Z,98872.97
2023-01-17T12:23:57.621Z,98854.22
2023-01-17T12:26:35.899Z,98866.03
2023-01-17T12:29:33.059Z,98869.31
2023-01-17T12:32:33.887Z,98873.53
2023-01-17T12:35:09.299Z,98862.59
2023-01-17T12:37:44.123Z,98837.94
2023-01-17T12:40:38.081Z,98862.38
2023-01-17T12:43:39.765Z,98842.81
2023-01-17T12:46:27.359Z,98876.56
2023-01-17T12:49:19.456Z,98875.63
2023-01-17T12:51:57.840Z,98833.94
2023-01-17T12:54:39.792Z,98882.13
2023-01-17T12:57:18.841Z,98824.44
2023-01-17T13:00:09.590Z,98846.47
2023-01-17T13:03:03.235Z,98807.47
2023-01-17T13:05:42.442Z,98837.97
2023-01-17T13:08:24.615Z,98878.50
2023-01-17T13:11:25.652Z,98889.53
2023-01-17T13:13:53.498Z,98862.31
2023-01-17T13:16:30.227Z,98836.78
2023-01-17T13:19:04.356Z,98812.28
2023-01-17T13:21:33.699Z,98812.34
2023-01-17T13:24:02.339Z,98879.06
2023-01-17T13:26:36.566Z,98879.03
2023-01-17T13:29:16.035Z,98844.28
2023-01-17T13:31:49.339Z,98856.13
2023-01-17T13:34:28.186Z,98851.06
2023-01-17T13:37:04.758Z,98890.00
2023-01-17T13:39:35.574Z,98861.16
2023-01-17T13:42:20.959Z,98888.25
2023-01-17T13:44:47.832Z,98827.34
2023-01-17T13:47:17.443Z,98875.66
2023-01-17T13:49:51.678Z,98891.69
2023-01-17T13:52:21.331Z,98895.16
2023-01-17T13:54:53.655Z,98895.16
2023-01-17T13:57:23.307Z,98896.06
2023-01-17T13:59:50.553Z,98856.31
2023-01-17T14:02:38.728Z,98893.56
2023-01-17T14:05:06.841Z,98895.34
2023-01-17T14:07:35.842Z,98859.84
2023-01-17T14:10:29.846Z,98848.88
2023-01-17T14:12:56.868Z,98882.06
2023-01-17T14:15:27.164Z,98905.84
2023-01-17T14:18:05.882Z,98853.34
2023-01-17T14:20:42.574Z,98880.47
2023-01-17T14:23:25.288Z,98873.72
2023-01-17T14:25:53.244Z,98853.44
2023-01-17T14:28:29.776Z,98908.53
2023-01-17T14:30:59.095Z,98874.81
2023-01-17T14:33:37.516Z,98901.09
2023-01-17T14:36:19.560Z,98921.47
2023-01-17T14:38:46.231Z,98885.88
2023-01-17T14:41:26.660Z,98898.66
2023-01-17T14:43:56.806Z,98905.50
2023-01-17T14:46:27.817Z,98923.25
2023-01-17T14:49:04.066Z,98887.69
2023-01-17T14:51:35.349Z,98881.03
2023-01-17T14:54:05.656Z,98900.50
2023-01-17T14:56:33.204Z,98876.03
2023-01-17T14:59:17.455Z,98937.09
2023-01-17T15:02:06.311Z,98909.16
2023-01-17T15:04:39.348Z,98921.03
2023-01-17T15:07:07.591Z,98893.16
2023-01-17T15:09:38.076Z,98894.09
2023-01-17T15:12:08.486Z,98928.88
2023-01-17T15:14:39.213Z,98954.41
2023-01-17T15:17:25.077Z,98943.38
2023-01-17T15:20:01.496Z,98931.66
2023-01-17T15:22:29.901Z,98914.75
2023-01-17T15:24:58.721Z,98928.34
2023-01-17T15:27:26.273Z,98919.03
2023-01-17T15:29:54.212Z,98921.69
2023-01-17T15:32:28.066Z,98943.88
2023-01-17T15:34:54.905Z,98934.53
2023-01-17T15:37:27.373Z,98973.59
2023-01-17T15:40:22.141Z,98962.75
2023-01-17T15:42:56.711Z,98953.50
2023-01-17T15:45:29.068Z,98977.31
2023-01-17T15:47:55.972Z,98959.53
2023-01-17T15:50:26.721Z,98950.19
2023-01-17T15:52:58.175Z,98985.97
2023-01-17T15:55:39.290Z,98974.16
2023-01-17T15:58:25.517Z,98964.91
2023-01-17T16:00:52.219Z,98983.66
2023-01-17T16:03:21.880Z,99016.00
2023-01-17T16:05:50.116Z,98984.59
2023-01-17T16:08:16.742Z,98986.38
2023-01-17T16:10:44.740Z,98972.84
2023-01-17T16:13:13.741Z,98978.91
2023-01-17T16:15:41.675Z,98982.34
2023-01-17T16:18:20.490Z,99010.41
2023-01-17T16:20:52.030Z,98955.31
2023-01-17T16:23:18.800Z,98973.97
2023-01-17T16:25:46.341Z,99018.25
2023-01-17T16:28:13.198Z,98945.22
2023-01-17T16:30:39.832Z,98998.75
2023-01-17T16:33:06.729Z,98988.63
2023-01-17T16:35:34.889Z,98996.38
2023-01-17T16:38:07.576Z,98998.09
2023-01-17T16:40:40.529Z,99031.25
2023-01-17T16:43:07.723Z,99009.19
2023-01-17T16:45:55.996Z,99034.72
2023-01-17T16:48:22.764Z,99027.19
2023-01-17T16:50:53.639Z,99038.19
2023-01-17T16:53:25.305Z,98995.81
2023-01-17T16:55:55.537Z,99038.25
2023-01-17T16:58:22.993Z,99022.19
2023-01-17T17:00:49.762Z,99008.63
2023-01-17T17:03:18.376Z,99034.13
2023-01-17T17:05:47.309Z,99006.09
2023-01-17T17:08:15.476Z,99023.22
2023-01-17T17:10:42.565Z,99005.34
2023-01-17T17:13:09.399Z,99038.53
2023-01-17T17:15:41.411Z,99007.94
2023-01-17T17:18:12.879Z,99059.78
2023-01-17T17:20:39.571Z,99020.75
2023-01-17T17:23:06.241Z,99019.97
2023-01-17T17:25:33.273Z,99057.38
2023-01-17T17:27:59.997Z,99058.28
2023-01-17T17:30:27.314Z,99065.03
2023-01-17T17:32:54.027Z,99065.09
2023-01-17T17:35:20.756Z,99080.34
2023-01-17T17:37:47.382Z,99071.06
2023-01-17T17:40:14.197Z,99071.94
2023-01-17T17:42:42.941Z,99079.59
2023-01-17T17:45:10.111Z,99084.75
2023-01-17T17:47:38.996Z,99076.25
2023-01-17T17:50:05.940Z,99113.69
2023-01-17T17:52:32.667Z,99098.38
2023-01-17T17:54:59.345Z,99078.91
2023-01-17T17:57:25.985Z,99084.84
2023-01-17T17:59:56.287Z,99096.75
2023-01-17T18:02:22.973Z,99080.63
2023-01-17T18:04:49.695Z,99055.16
2023-01-17T18:07:16.392Z,99059.44
2023-01-17T18:09:43.186Z,99084.91
2023-01-17T18:12:09.874Z,99123.22
2023-01-17T18:14:36.481Z,99147.09
2023-01-17T18:17:03.242Z,99109.66
2023-01-17T18:19:30.076Z,99135.22
2023-01-17T18:21:56.880Z,99117.34
2023-01-17T18:24:24.937Z,99156.53
2023-01-17T18:26:57.259Z,99125.06
2023-01-17T18:29:25.214Z,99153.16
2023-01-17T18:31:52.896Z,99176.97
2023-01-17T18:34:24.027Z,99140.44
2023-01-17T18:36:51.861Z,99136.22
2023-01-17T18:39:29.551Z,99172.81
2023-01-17T18:41:56.798Z,99175.34
2023-01-17T18:44:23.716Z,99156.66
2023-01-17T18:46:52.467Z,99187.31
2023-01-17T18:49:19.540Z,99130.34
2023-01-17T18:51:51.128Z,99189.06
2023-01-17T18:54:19.249Z,99156.75
2023-01-17T18:56:46.146Z,99181.44
2023-01-17T18:59:16.392Z,99181.44
2023-01-17T19:01:43.835Z,99186.56
2023-01-17T19:04:12.131Z,99185.69
2023-01-17T19:06:41.948Z,99176.34
2023-01-17T19:09:11.991Z,99173.78
2023-01-17T19:11:39.205Z,99192.56
2023-01-17T19:14:07.000Z,99185.78
2023-01-17T19:16:39.146Z,99205.34
2023-01-17T19:19:08.582Z,99212.16
2023-01-17T19:21:35.782Z,99161.09
2023-01-17T19:24:05.311Z,99201.09
2023-01-17T19:26:31.989Z,99182.38
2023-01-17T19:29:00.142Z,99186.66
2023-01-17T19:31:30.676Z,99203.66
2023-01-17T19:33:59.542Z,99212.19
2023-01-17T19:36:34.043Z,99179.00
2023-01-17T19:39:06.251Z,99198.59
2023-01-17T19:41:37.438Z,99115.16
2023-01-17T19:44:22.758Z,99213.06
2023-01-17T19:46:49.476Z,99179.00
2023-01-17T19:49:26.719Z,99194.31
2023-01-17T19:51:56.455Z,99199.41
2023-01-17T19:54:35.627Z,99185.81
2023-01-17T19:57:06.692Z,99210.53
2023-01-17T19:59:33.530Z,99187.53
2023-01-17T20:02:22.374Z,99150.03
2023-01-17T20:04:48.863Z,99201.97
2023-01-17T20:07:15.945Z,99226.72
2023-01-17T20:09:44.362Z,99240.31
2023-01-17T20:12:11.201Z,99199.41
2023-01-17T20:14:37.849Z,99209.63
2023-01-17T20:17:05.010Z,99208.78
2023-01-17T20:19:32.604Z,99196.88
2023-01-17T20:22:07.517Z,99231.78
2023-01-17T20:24:38.262Z,99230.94
2023-01-17T20:27:07.695Z,99190.06
2023-01-17T20:29:40.632Z,99236.91
2023-01-17T20:32:07.980Z,99213.91
2023-01-17T20:34:34.804Z,99261.63
2023-01-17T20:37:08.010Z,99265.88
2023-01-17T20:39:40.171Z,99228.38
2023-01-17T20:42:06.839Z,99213.88
2023-01-17T20:44:34.695Z,99197.69
2023-01-17T20:47:09.315Z,99195.97
2023-01-17T20:49:43.334Z,99241.13
2023-01-17T20:52:18.385Z,99211.25
2023-01-17T20:54:48.547Z,99277.72
2023-01-17T20:57:22.394Z,99253.00
2023-01-17T20:59:57.531Z,99207.84
2023-01-17T21:02:26.800Z,99236.81
2023-01-17T21:04:53.499Z,99204.41
2023-01-17T21:07:20.593Z,99225.69
2023-01-17T21:09:52.968Z,99254.66
2023-01-17T21:12:22.039Z,99246.13
2023-01-17T21:14:48.650Z,99245.25
2023-01-17T21:17:18.201Z,99198.38
2023-01-17T21:19:58.814Z,99240.09
2023-01-17T21:26:32.736Z,99197.44
2023-01-17T21:29:03.737Z,99229.00
2023-01-17T21:31:41.123Z,99255.41
2023-01-17T21:34:10.097Z,99217.91
2023-01-17T21:36:56.934Z,99228.97
2023-01-17T21:39:40.992Z,99263.91
2023-01-17T21:46:17.994Z,99298.03
2023-01-17T21:48:58.240Z,99207.59
2023-01-17T21:51:55.974Z,99267.28
2023-01-17T21:54:46.755Z,99247.66
2023-01-17T21:57:41.768Z,99221.22
2023-01-17T22:00:18.636Z,99311.56
2023-01-17T22:02:46.807Z,99267.22
2023-01-17T22:05:30.809Z,99259.53
2023-01-17T22:08:29.084Z,99305.59
2023-01-17T22:11:11.827Z,99216.00
2023-01-17T22:13:43.721Z,99238.97
2023-01-17T22:16:32.031Z,99320.00
2023-01-17T22:19:01.977Z,99243.22
2023-01-17T22:21:37.536Z,99207.41
2023-01-17T22:24:20.640Z,99267.06
2023-01-17T22:29:34.146Z,99273.84
2023-01-17T22:32:08.241Z,99281.59
2023-01-17T22:34:35.880Z,99310.56
2023-01-17T22:37:12.751Z,99252.56
2023-01-17T22:40:19.418Z,99279.00
2023-01-17T22:42:50.732Z,99274.72
2023-01-17T22:45:33.650Z,99321.63
2023-01-17T22:48:02.608Z,99255.06
2023-01-17T22:50:31.551Z,99227.78
2023-01-17T22:53:01.468Z,99295.19
2023-01-17T22:55:36.176Z,99261.91
2023-01-17T22:58:09.765Z,99285.78
2023-01-17T23:01:12.326Z,99307.09
2023-01-17T23:04:06.161Z,99296.00
2023-01-17T23:06:35.657Z,99248.16
2023-01-17T23:09:06.789Z,99301.94
2023-01-17T23:11:39.047Z,99321.53
2023-01-17T23:14:08.044Z,99274.59
2023-01-17T23:16:53.163Z,99298.50
2023-01-17T23:19:22.515Z,99299.34
2023-01-17T23:22:15.053Z,99283.09
2023-01-17T23:25:00.292Z,99292.50
2023-01-17T23:27:52.113Z,99292.50
2023-01-17T23:30:23.649Z,99321.44
2023-01-17T23:32:54.115Z,99298.44
2023-01-17T23:35:26.479Z,99330.03
2023-01-17T23:38:12.464Z,99296.75
2023-01-17T23:40:39.747Z,99324.03
2023-01-17T23:43:25.800Z,99324.94
2023-01-17T23:45:54.531Z,99341.09
2023-01-17T23:48:23.726Z,99295.84
2023-01-17T23:50:50.721Z,99301.84
2023-01-17T23:53:23.354Z,99333.44
2023-01-17T23:55:52.504Z,99279.59
2023-01-17T23:58:20.949Z,99271.06
